Warning: Javascript must be enabled to use all the features on this page!


Page Loading - Please Wait...

Click to hideNews Bulletins
Click to hide state-specific text

Explore Real-time Water Data Using New Products from USGS TXWSC

View over 750 USGS real-time stream, lake, reservoir, precipitation, and groundwater stations in context with current weather and hazard conditions on both desktop and mobile devices.

Click to go to the Texas Water Dashboard Click to go to the WATER On-the-go app

Follow @USGS_TexasFlood and @USGS_TexasRain on Twitter to get current water level and precipitation data during flooding or severe rainfall events.


USGS 08195000 Frio Rv at Concan, TX

PROVISIONAL DATA SUBJECT TO REVISION

Click to hidestation-specific text
Funding for this site is provided by the cooperators / programs below:
Click to go to the Edwards Aquifer Authority web page

Edwards Aquifer Authority

Click to go to the Cooperative Matching Funds web page

Cooperative Matching Funds

 

Rainfall Disclaimer


retransmission, forecasts and summary of this location by the National Weather Service
Retransmission, forecasts and summary by the National Weather Service

National Weather Service provided floatability levels for recreational users at several locations throughout Texas.

This station managed by the San Antonio Field Unit.

Available Parameters Available Period
All 6 Available Parameters for this site
  
00010 Temperature, water 2013-07-25  2018-04-25
00045 Precipitation 2017-12-26  2018-04-25
00060 Discharge 1991-10-01  2018-04-25
00065 Gage height 2007-10-01  2018-04-25
00095 Specific cond at 25C 2013-07-02  2018-04-25
99133 NO3+NO2,water,insitu 2015-09-24  2018-04-25

Graph
Graph w/ stats
Graph w/o stats
Graph w/ (up to 3) parms
Table
Tab-separated
Days  (2)
 

  -- or --
Begin date
 

End date
 

Summary of all available data for this site
Instantaneous-data availability statement






Date / Time




Gage
height,
feet,




Dis-
charge,
ft3/s,



Precip-
itation
total,
inches,
Specif-
ic
conduc-
tance,
wat unf
uS/cm @
25 degC,



Temper-
ature,
water,
deg C,

Nitrate
+
nitrite
water,
in situ
mg/L as,
04/23/2018 00:00 CDT3.50P  30.0P  0.00P  498P  21.8P  0.14P  
04/23/2018 00:15 CDT3.51P  31.3P  0.00P  497P  21.7P     
04/23/2018 00:30 CDT3.51P  31.3P  0.00P  497P  21.6P     
04/23/2018 00:45 CDT3.49P  28.8P  0.00P  498P  21.6P     
04/23/2018 01:00 CDT3.48P  27.6P  0.00P  499P  21.5P  0.14P  
04/23/2018 01:15 CDT3.50P  30.0P  0.00P  500P  21.4P     
04/23/2018 01:30 CDT3.50P  30.0P  0.00P  501P  21.3P     
04/23/2018 01:45 CDT3.50P  30.0P  0.00P  503P  21.2P     
04/23/2018 02:00 CDT3.51P  31.3P  0.00P  500P  21.2P  0.14P  
04/23/2018 02:15 CDT3.49P  28.8P  0.00P  497P  21.1P     
04/23/2018 02:30 CDT3.51P  31.3P  0.00P  496P  21.0P     
04/23/2018 02:45 CDT3.50P  30.0P  0.00P  495P  21.0P     
04/23/2018 03:00 CDT3.48P  27.6P  0.00P  495P  20.9P  0.14P  
04/23/2018 03:15 CDT3.51P  31.3P  0.00P  493P  20.9P     
04/23/2018 03:30 CDT3.50P  30.0P  0.00P  492P  20.8P     
04/23/2018 03:45 CDT3.48P  27.6P  0.00P  492P  20.8P     
04/23/2018 04:00 CDT3.51P  31.3P  0.00P  493P  20.7P  0.14P  
04/23/2018 04:15 CDT3.50P  30.0P  0.00P  494P  20.7P     
04/23/2018 04:30 CDT3.50P  30.0P  0.00P  492P  20.6P     
04/23/2018 04:45 CDT3.51P  31.3P  0.00P  490P  20.6P     
04/23/2018 05:00 CDT3.51P  31.3P  0.00P  490P  20.6P  0.14P  
04/23/2018 05:15 CDT3.50P  30.0P  0.00P  491P  20.6P     
04/23/2018 05:30 CDT3.49P  28.8P  0.00P  490P  20.5P     
04/23/2018 05:45 CDT3.51P  31.3P  0.00P  488P  20.5P     
04/23/2018 06:00 CDT3.51P  31.3P  0.00P  487P  20.5P  0.14P  
04/23/2018 06:15 CDT3.50P  30.0P  0.00P  487P  20.4P     
04/23/2018 06:30 CDT3.51P  31.3P  0.00P  487P  20.4P     
04/23/2018 06:45 CDT3.51P  31.3P  0.00P  487P  20.4P     
04/23/2018 07:00 CDT3.50P  30.0P  0.00P  487P  20.4P  0.14P  
04/23/2018 07:15 CDT3.50P  30.0P  0.00P  488P  20.3P     
04/23/2018 07:30 CDT3.50P  30.0P  0.00P  487P  20.3P     
04/23/2018 07:45 CDT3.50P  30.0P  0.00P  487P  20.3P     
04/23/2018 08:00 CDT3.50P  30.0P  0.00P  487P  20.2P  0.14P  
04/23/2018 08:15 CDT3.50P  30.0P  0.00P  487P  20.2P     
04/23/2018 08:30 CDT3.50P  30.0P  0.00P  488P  20.2P     
04/23/2018 08:45 CDT3.50P  30.0P  0.00P  488P  20.2P     
04/23/2018 09:00 CDT3.49P  28.8P  0.00P  489P  20.1P  0.14P  
04/23/2018 09:15 CDT3.50P  30.0P  0.00P  489P  20.1P     
04/23/2018 09:30 CDT3.50P  30.0P  0.00P  490P  20.1P     
04/23/2018 09:45 CDT3.49P  28.8P  0.00P  490P  20.1P     
04/23/2018 10:00 CDT3.48P  27.6P  0.00P  491P  20.2P  0.14P  
04/23/2018 10:15 CDT3.51P  31.3P  0.00P  491P  20.2P     
04/23/2018 10:30 CDT3.51P  31.3P  0.00P  491P  20.3P     
04/23/2018 10:45 CDT3.50P  30.0P  0.00P  491P  20.3P     
04/23/2018 11:00 CDT3.50P  30.0P  0.00P  491P  20.4P  0.14P  
04/23/2018 11:15 CDT3.49P  28.8P  0.00P  491P  20.5P     
04/23/2018 11:30 CDT3.51P  31.3P  0.00P  492P  20.6P     
04/23/2018 11:45 CDT3.50P  30.0P  0.00P  492P  20.8P     
04/23/2018 12:00 CDT3.51P  31.3P  0.00P  492P  20.9P  0.14P  
04/23/2018 12:15 CDT3.49P  28.8P  0.00P  492P  21.0P     
04/23/2018 12:30 CDT3.50P  30.0P  0.00P  493P  21.2P     
04/23/2018 12:45 CDT3.49P  28.8P  0.00P  495P  21.3P     
04/23/2018 13:00 CDT3.50P  30.0P  0.00P  495P  21.4P  0.14P  
04/23/2018 13:15 CDT3.50P  30.0P  0.00P  495P  21.6P     
04/23/2018 13:30 CDT3.49P  28.8P  0.00P  498P  21.7P     
04/23/2018 13:45 CDT3.50P  30.0P  0.00P  500P  21.9P     
04/23/2018 14:00 CDT3.48P  27.6P  0.00P  501P  22.0P  0.14P  
04/23/2018 14:15 CDT3.51P  31.3P  0.00P  503P  22.2P     
04/23/2018 14:30 CDT3.49P  28.8P  0.00P  503P  22.4P     
04/23/2018 14:45 CDT3.49P  28.8P  0.00P  504P  22.5P     
04/23/2018 15:00 CDT3.50P  30.0P  0.00P  504P  22.7P  0.13P  
04/23/2018 15:15 CDT3.49P  28.8P  0.00P  504P  22.8P     
04/23/2018 15:30 CDT3.51P  31.3P  0.00P  503P  23.0P     
04/23/2018 15:45 CDT3.50P  30.0P  0.00P  502P  23.2P     
04/23/2018 16:00 CDT3.50P  30.0P  0.00P  501P  23.3P  0.13P  
04/23/2018 16:15 CDT3.49P  28.8P  0.00P  499P  23.4P     
04/23/2018 16:30 CDT3.49P  28.8P  0.00P  497P  23.6P     
04/23/2018 16:45 CDT3.49P  28.8P  0.00P  496P  23.7P     
04/23/2018 17:00 CDT3.49P  28.8P  0.00P  495P  23.9P  0.13P  
04/23/2018 17:15 CDT3.50P  30.0P  0.00P  494P  24.0P     
04/23/2018 17:30 CDT3.47P  26.4P  0.00P  494P  24.1P     
04/23/2018 17:45 CDT3.49P  28.8P  0.00P  493P  24.1P     
04/23/2018 18:00 CDT3.50P  30.0P  0.00P  493P  24.2P  0.14P  
04/23/2018 18:15 CDT3.50P  30.0P  0.00P  493P  24.2P     
04/23/2018 18:30 CDT3.49P  28.8P  0.00P  494P  24.3P     
04/23/2018 18:45 CDT3.48P  27.6P  0.00P  499P  24.3P     
04/23/2018 19:00 CDT3.50P  30.0P  0.00P  500P  24.2P  0.14P  
04/23/2018 19:15 CDT3.50P  30.0P  0.00P  502P  24.2P     
04/23/2018 19:30 CDT3.49P  28.8P  0.00P  501P  24.2P     
04/23/2018 19:45 CDT3.48P  27.6P  0.00P  500P  24.1P     
04/23/2018 20:00 CDT3.48P  27.6P  0.00P  499P  24.0P  0.14P  
04/23/2018 20:15 CDT3.49P  28.8P  0.00P  500P  24.0P     
04/23/2018 20:30 CDT3.48P  27.6P  0.00P  506P  23.9P     
04/23/2018 20:45 CDT3.49P  28.8P  0.00P  509P  23.9P     
04/23/2018 21:00 CDT3.50P  30.0P  0.00P  511P  23.8P  0.14P  
04/23/2018 21:15 CDT3.50P  30.0P  0.00P  511P  23.7P     
04/23/2018 21:30 CDT3.48P  27.6P  0.00P  510P  23.6P     
04/23/2018 21:45 CDT3.48P  27.6P  0.00P  511P  23.5P     
04/23/2018 22:00 CDT3.49P  28.8P  0.00P  509P  23.4P  0.14P  
04/23/2018 22:15 CDT3.50P  30.0P  0.00P  510P  23.3P     
04/23/2018 22:30 CDT3.48P  27.6P  0.00P  508P  23.2P     
04/23/2018 22:45 CDT3.49P  28.8P  0.00P  505P  23.1P     
04/23/2018 23:00 CDT3.50P  30.0P  0.00P  503P  23.0P  0.14P  
04/23/2018 23:15 CDT3.48P  27.6P  0.00P  500P  22.9P     
04/23/2018 23:30 CDT3.49P  28.8P  0.00P  498P  22.8P     
04/23/2018 23:45 CDT3.48P  27.6P  0.00P  495P  22.7P     
04/24/2018 00:00 CDT3.48P  27.6P  0.00P  494P  22.6P  0.14P  
04/24/2018 00:15 CDT3.48P  27.6P  0.00P  493P  22.5P     
04/24/2018 00:30 CDT3.50P  30.0P  0.00P  493P  22.4P     
04/24/2018 00:45 CDT3.50P  30.0P  0.00P  493P  22.4P     
04/24/2018 01:00 CDT3.49P  28.8P  0.00P  493P  22.3P  0.14P  
04/24/2018 01:15 CDT3.49P  28.8P  0.00P  493P  22.2P     
04/24/2018 01:30 CDT3.49P  28.8P  0.00P  492P  22.1P     
04/24/2018 01:45 CDT3.50P  30.0P  0.00P  491P  22.0P     
04/24/2018 02:00 CDT3.48P  27.6P  0.00P  490P  22.0P  0.14P  
04/24/2018 02:15 CDT3.49P  28.8P  0.00P  489P  21.9P     
04/24/2018 02:30 CDT3.49P  28.8P  0.00P  489P  21.8P     
04/24/2018 02:45 CDT3.49P  28.8P  0.00P  487P  21.8P     
04/24/2018 03:00 CDT3.49P  28.8P  0.00P  486P  21.7P  0.14P  
04/24/2018 03:15 CDT3.49P  28.8P  0.00P  486P  21.7P     
04/24/2018 03:30 CDT3.50P  30.0P  0.00P  485P  21.6P     
04/24/2018 03:45 CDT3.48P  27.6P  0.00P  485P  21.6P     
04/24/2018 04:00 CDT3.50P  30.0P  0.00P  485P  21.5P  0.14P  
04/24/2018 04:15 CDT3.49P  28.8P  0.00P  485P  21.5P     
04/24/2018 04:30 CDT3.49P  28.8P  0.00P  485P  21.4P     
04/24/2018 04:45 CDT3.49P  28.8P  0.00P  486P  21.4P     
04/24/2018 05:00 CDT3.50P  30.0P  0.00P  486P  21.4P  0.14P  
04/24/2018 05:15 CDT3.48P  27.6P  0.00P  488P  21.4P     
04/24/2018 05:30 CDT3.48P  27.6P  0.00P  488P  21.3P     
04/24/2018 05:45 CDT3.50P  30.0P  0.00P  490P  21.3P     
04/24/2018 06:00 CDT3.50P  30.0P  0.00P  491P  21.2P  0.14P  
04/24/2018 06:15 CDT3.49P  28.8P  0.00P  491P  21.2P     
04/24/2018 06:30 CDT3.48P  27.6P  0.00P  491P  21.2P     
04/24/2018 06:45 CDT3.50P  30.0P  0.00P  492P  21.1P     
04/24/2018 07:00 CDT3.48P  27.6P  0.00P  492P  21.1P  0.14P  
04/24/2018 07:15 CDT3.48P  27.6P  0.00P  493P  21.0P     
04/24/2018 07:30 CDT3.50P  30.0P  0.00P  493P  21.0P     
04/24/2018 07:45 CDT3.50P  30.0P  0.00P  493P  21.0P     
04/24/2018 08:00 CDT3.50P  30.0P  0.00P  493P  21.0P  0.14P  
04/24/2018 08:15 CDT3.50P  30.0P  0.00P  493P  20.9P     
04/24/2018 08:30 CDT3.49P  28.8P  0.00P  492P  20.9P     
04/24/2018 08:45 CDT3.49P  28.8P  0.00P  492P  20.9P     
04/24/2018 09:00 CDT3.49P  28.8P  0.00P  492P  20.8P  0.14P  
04/24/2018 09:15 CDT3.49P  28.8P  0.00P  493P  20.8P     
04/24/2018 09:30 CDT3.48P  27.6P  0.00P  493P  20.8P     
04/24/2018 09:45 CDT3.50P  30.0P  0.00P  494P  20.8P     
04/24/2018 10:00 CDT3.48P  27.6P  0.00P  494P  20.9P  0.14P  
04/24/2018 10:15 CDT3.49P  28.8P  0.00P  495P  21.0P     
04/24/2018 10:30 CDT3.50P  30.0P  0.00P  496P  21.0P     
04/24/2018 10:45 CDT3.48P  27.6P  0.00P  496P  21.1P     
04/24/2018 11:00 CDT3.50P  30.0P  0.00P  496P  21.2P  0.14P  
04/24/2018 11:15 CDT3.49P  28.8P  0.00P  495P  21.3P     
04/24/2018 11:30 CDT3.49P  28.8P  0.00P  494P  21.5P     
04/24/2018 11:45 CDT3.49P  28.8P  0.00P  494P  21.6P     
04/24/2018 12:00 CDT3.48P  27.6P  0.00P  494P  21.8P  0.14P  
04/24/2018 12:15 CDT3.49P  28.8P  0.00P  493P  21.9P     
04/24/2018 12:30 CDT3.50P  30.0P  0.00P  492P  22.1P     
04/24/2018 12:45 CDT3.50P  30.0P  0.00P  492P  22.2P     
04/24/2018 13:00 CDT3.50P  30.0P  0.00P  489P  22.4P  0.14P  
04/24/2018 13:15 CDT3.50P  30.0P  0.00P  490P  22.5P     
04/24/2018 13:30 CDT3.50P  30.0P  0.00P  490P  22.6P     
04/24/2018 13:45 CDT3.48P  27.6P  0.00P  490P  22.7P     
04/24/2018 14:00 CDT3.50P  30.0P  0.00P  489P  22.8P  0.14P  
04/24/2018 14:15 CDT3.49P  28.8P  0.00P  490P  23.0P     
04/24/2018 14:30 CDT3.49P  28.8P  0.00P  490P  23.2P     
04/24/2018 14:45 CDT3.50P  30.0P  0.00P  490P  23.3P     
04/24/2018 15:00 CDT3.50P  30.0P  0.00P  491P  23.4P  0.14P  
04/24/2018 15:15 CDT3.49P  28.8P  0.00P  491P  23.6P     
04/24/2018 15:30 CDT3.47P  26.4P  0.00P  490P  23.7P     
04/24/2018 15:45 CDT3.48P  27.6P  0.00P  488P  23.8P     
04/24/2018 16:00 CDT3.47P  26.4P  0.00P  488P  23.9P  0.14P  
04/24/2018 16:15 CDT3.49P  28.8P  0.00P  487P  24.0P     
04/24/2018 16:30 CDT3.47P  26.4P  0.00P  488P  24.2P     
04/24/2018 16:45 CDT3.48P  27.6P  0.00P  488P  24.3P     
04/24/2018 17:00 CDT3.49P  28.8P  0.00P  489P  24.4P  0.14P  
04/24/2018 17:15 CDT3.49P  28.8P  0.00P  492P  24.5P     
04/24/2018 17:30 CDT3.49P  28.8P  0.00P  497P  24.5P     
04/24/2018 17:45 CDT3.49P  28.8P  0.00P  497P  24.6P     
04/24/2018 18:00 CDT3.49P  28.8P  0.00P  497P  24.6P  0.14P  
04/24/2018 18:15 CDT3.47P  26.4P  0.00P  498P  24.6P     
04/24/2018 18:30 CDT3.48P  27.6P  0.00P  498P  24.6P     
04/24/2018 18:45 CDT3.49P  28.8P  0.00P  496P  24.6P     
04/24/2018 19:00 CDT3.47P  26.4P  0.00P  494P  24.6P  0.14P  
04/24/2018 19:15 CDT3.47P  26.4P  0.00P  492P  24.6P     
04/24/2018 19:30 CDT3.49P  28.8P  0.00P  492P  24.5P     
04/24/2018 19:45 CDT3.48P  27.6P  0.00P  493P  24.5P     
04/24/2018 20:00 CDT3.49P  28.8P  0.00P  493P  24.4P  0.13P  
04/24/2018 20:15 CDT3.47P  26.4P  0.00P  494P  24.4P     
04/24/2018 20:30 CDT3.47P  26.4P  0.00P  517P  24.4P     
04/24/2018 20:45 CDT3.47P  26.4P  0.00P  520P  24.3P     
04/24/2018 21:00 CDT3.48P  27.6P  0.00P  512P  24.2P  0.13P  
04/24/2018 21:15 CDT3.48P  27.6P  0.00P  502P  24.1P     
04/24/2018 21:30 CDT3.48P  27.6P  0.00P  501P  24.0P     
04/24/2018 21:45 CDT3.47P  26.4P  0.00P  497P  23.9P     
04/24/2018 22:00 CDT3.49P  28.8P  0.00P  494P  23.8P  0.13P  
04/24/2018 22:15 CDT3.48P  27.6P  0.00P  493P  23.7P     
04/24/2018 22:30 CDT3.49P  28.8P  0.00P  491P  23.6P     
04/24/2018 22:45 CDT3.47P  26.4P  0.00P  488P  23.6P     
04/24/2018 23:00 CDT3.48P  27.6P  0.00P  486P  23.4P  0.13P  
04/24/2018 23:15 CDT3.47P  26.4P  0.00P  486P  23.4P     
04/24/2018 23:30 CDT3.49P  28.8P  0.00P  485P  23.3P     
04/24/2018 23:45 CDT3.47P  26.4P  0.00P  484P  23.2P     
04/25/2018 00:00 CDT3.49P  28.8P  0.00P  484P  23.1P  0.14P  
04/25/2018 00:15 CDT3.49P  28.8P  0.00P  484P  23.0P     
04/25/2018 00:30 CDT3.48P  27.6P  0.00P  483P  23.0P     
04/25/2018 00:45 CDT3.48P  27.6P  0.00P  485P  22.9P     
04/25/2018 01:00 CDT3.48P  27.6P  0.00P  485P  22.8P  0.14P  
04/25/2018 01:15 CDT3.49P  28.8P  0.00P  487P  22.8P     
04/25/2018 01:30 CDT3.48P  27.6P  0.00P  487P  22.7P     
04/25/2018 01:45 CDT3.49P  28.8P  0.00P  487P  22.7P     
04/25/2018 02:00 CDT3.47P  26.4P  0.00P  487P  22.6P  0.14P  
04/25/2018 02:15 CDT3.48P  27.6P  0.00P  488P  22.6P     
04/25/2018 02:30 CDT3.49P  28.8P  0.00P  488P  22.5P     
04/25/2018 02:45 CDT3.48P  27.6P  0.00P  488P  22.4P     
04/25/2018 03:00 CDT3.49P  28.8P  0.00P  488P  22.4P  0.14P  
04/25/2018 03:15 CDT3.49P  28.8P  0.00P  487P  22.4P     
04/25/2018 03:30 CDT3.48P  27.6P  0.00P  486P  22.3P     
04/25/2018 03:45 CDT3.49P  28.8P  0.00P  484P  22.2P     
04/25/2018 04:00 CDT3.50P  30.0P  0.00P  483P  22.2P  0.14P  
04/25/2018 04:15 CDT3.47P  26.4P  0.00P  483P  22.2P     
04/25/2018 04:30 CDT3.48P  27.6P  0.00P  483P  22.1P     
04/25/2018 04:45 CDT3.49P  28.8P  0.00P  482P  22.1P     
04/25/2018 05:00 CDT3.49P  28.8P  0.00P  481P  22.0P  0.14P  
04/25/2018 05:15 CDT3.48P  27.6P  0.00P  481P  22.0P     
04/25/2018 05:30 CDT3.48P  27.6P  0.00P  481P  21.9P     
04/25/2018 05:45 CDT3.48P  27.6P  0.00P  481P  21.9P     
04/25/2018 06:00 CDT3.49P  28.8P  0.00P  481P  21.9P  0.14P  
04/25/2018 06:15 CDT3.49P  28.8P  0.00P  482P  21.8P     
04/25/2018 06:30 CDT3.48P  27.6P  0.00P  482P  21.8P     
04/25/2018 06:45 CDT3.48P  27.6P  0.00P  481P  21.8P     
04/25/2018 07:00 CDT3.49P  28.8P  0.00P  481P  21.7P  0.14P  
04/25/2018 07:15 CDT3.49P  28.8P  0.00P  482P  21.7P     
04/25/2018 07:30 CDT3.48P  27.6P  0.00P  481P  21.7P     
04/25/2018 07:45 CDT3.47P  26.4P  0.00P  481P  21.7P     
04/25/2018 08:00 CDT3.49P  28.8P  0.00P  480P  21.7P  0.14P  
04/25/2018 08:15 CDT3.48P  27.6P  0.00P  480P  21.7P     
04/25/2018 08:30 CDT3.49P  28.8P  0.00P  480P  21.7P     
04/25/2018 08:45 CDT3.49P  28.8P  0.00P  480P  21.6P     
04/25/2018 09:00 CDT3.49P  28.8P  0.00P  481P  21.6P  0.15P  
04/25/2018 09:15 CDT3.47P  26.4P  0.00P  481P  21.6P     
04/25/2018 09:30 CDT3.49P  28.8P  0.00P  480P  21.6P     

Explanation
  P  Provisional data subject to revision.